createdAt,value
2022-10-30T00:01:05.079Z,25.37
2022-10-30T00:03:32.241Z,29.63
2022-10-30T00:05:59.275Z,28.03
2022-10-30T00:08:26.495Z,62.40
2022-10-30T00:10:54.124Z,26.07
2022-10-30T00:13:22.267Z,52.17
2022-10-30T00:15:51.287Z,41.23
2022-10-30T00:18:18.995Z,58.10
2022-10-30T00:20:46.181Z,28.67
2022-10-30T00:23:13.944Z,37.83
2022-10-30T00:25:40.957Z,33.27
2022-10-30T00:28:08.529Z,38.70
2022-10-30T00:30:35.765Z,45.10
2022-10-30T00:33:03.478Z,26.37
2022-10-30T00:35:31.366Z,24.17
2022-10-30T00:37:59.930Z,33.23
2022-10-30T00:40:27.265Z,49.23
2022-10-30T00:42:55.129Z,29.83
2022-10-30T00:45:22.210Z,28.50
2022-10-30T00:48:02.916Z,23.17
2022-10-30T00:50:36.677Z,23.73
2022-10-30T00:53:08.115Z,36.90
2022-10-30T00:55:42.460Z,21.53
2022-10-30T00:58:13.103Z,28.67
2022-10-30T01:00:43.860Z,26.60
2022-10-30T01:03:11.303Z,27.00
2022-10-30T01:05:39.404Z,54.37
2022-10-30T01:08:06.592Z,35.43
2022-10-30T01:10:33.782Z,32.10
2022-10-30T01:13:02.244Z,71.00
2022-10-30T01:15:38.289Z,50.63
2022-10-30T01:18:23.099Z,30.27
2022-10-30T01:21:13.111Z,35.23
2022-10-30T01:24:11.265Z,40.67
2022-10-30T01:26:56.073Z,47.27
2022-10-30T01:30:04.511Z,27.23
2022-10-30T01:33:30.115Z,26.00
2022-10-30T01:36:19.513Z,29.90
2022-10-30T01:38:56.930Z,29.60
2022-10-30T01:41:24.406Z,32.17
2022-10-30T01:44:03.677Z,38.27
2022-10-30T01:47:35.844Z,24.43
2022-10-30T01:50:25.452Z,16.93
2022-10-30T01:53:39.044Z,32.10
2022-10-30T01:56:49.007Z,21.50
2022-10-30T01:59:26.230Z,38.37
2022-10-30T02:01:53.491Z,32.90
2022-10-30T02:04:21.512Z,38.87
2022-10-30T02:06:51.744Z,32.57
2022-10-30T02:09:18.836Z,34.90
2022-10-30T02:11:51.293Z,40.23
2022-10-30T02:14:31.408Z,50.87
2022-10-30T02:17:01.646Z,38.50
2022-10-30T02:19:28.697Z,46.00
2022-10-30T02:21:55.947Z,34.27
2022-10-30T02:24:23.279Z,36.23
2022-10-30T02:26:50.301Z,30.93
2022-10-30T02:29:20.855Z,43.87
2022-10-30T02:31:48.720Z,60.23
2022-10-30T02:34:16.471Z,39.10
2022-10-30T02:36:44.043Z,67.20
2022-10-30T02:39:11.498Z,70.77
2022-10-30T02:41:38.944Z,51.43
2022-10-30T02:44:06.813Z,43.30
2022-10-30T02:46:35.511Z,39.87
2022-10-30T02:49:02.984Z,42.87
2022-10-30T02:51:32.168Z,48.00
2022-10-30T02:54:02.077Z,46.80
2022-10-30T02:56:30.804Z,43.80
2022-10-30T02:58:57.843Z,53.87
2022-10-30T03:01:25.017Z,74.00
2022-10-30T03:03:55.866Z,28.67
2022-10-30T03:06:23.467Z,47.30
2022-10-30T03:08:51.127Z,37.57
2022-10-30T03:11:20.004Z,43.97
2022-10-30T03:13:48.536Z,49.47
2022-10-30T03:16:24.452Z,51.63
2022-10-30T03:18:52.761Z,56.27
2022-10-30T03:21:22.473Z,89.73
2022-10-30T03:23:50.694Z,40.03
2022-10-30T03:26:19.316Z,82.77
2022-10-30T03:28:50.802Z,47.67
2022-10-30T03:31:19.244Z,48.53
2022-10-30T03:33:49.043Z,57.13
2022-10-30T03:36:16.231Z,45.83
2022-10-30T03:38:43.567Z,42.90
2022-10-30T03:41:14.271Z,76.80
2022-10-30T03:43:41.373Z,51.90
2022-10-30T03:46:10.002Z,36.07
2022-10-30T03:48:37.528Z,76.43
2022-10-30T03:51:04.971Z,35.20
2022-10-30T03:53:32.087Z,46.67
2022-10-30T03:56:02.054Z,42.07
2022-10-30T03:58:37.866Z,53.10
2022-10-30T04:01:09.926Z,38.77
2022-10-30T04:03:40.004Z,39.60
2022-10-30T04:06:09.257Z,42.50
2022-10-30T04:08:36.314Z,38.03
2022-10-30T04:11:04.345Z,29.20
2022-10-30T04:13:31.799Z,66.50
2022-10-30T04:15:58.893Z,60.27
2022-10-30T04:18:26.638Z,37.90
2022-10-30T04:20:55.174Z,43.37
2022-10-30T04:23:22.498Z,38.73
2022-10-30T04:25:49.781Z,20.77
2022-10-30T04:28:17.587Z,39.97
2022-10-30T04:30:45.913Z,39.27
2022-10-30T04:33:14.732Z,25.13
2022-10-30T04:35:42.558Z,41.27
2022-10-30T04:38:19.287Z,56.03
2022-10-30T04:40:47.489Z,41.47
2022-10-30T04:43:15.572Z,34.40
2022-10-30T04:45:46.027Z,47.73
2022-10-30T04:48:15.000Z,50.83
2022-10-30T04:50:43.915Z,32.00
2022-10-30T04:53:18.045Z,44.53
2022-10-30T04:55:47.722Z,39.77
2022-10-30T04:58:15.272Z,48.87
2022-10-30T05:00:46.029Z,60.37
2022-10-30T05:03:24.784Z,51.10
2022-10-30T05:06:02.144Z,38.40
2022-10-30T05:08:30.147Z,59.87
2022-10-30T05:10:59.782Z,58.83
2022-10-30T05:13:29.764Z,73.00
2022-10-30T05:15:57.997Z,44.50
2022-10-30T05:18:25.002Z,52.03
2022-10-30T05:20:52.766Z,34.57
2022-10-30T05:23:19.864Z,42.40
2022-10-30T05:25:47.001Z,31.93
2022-10-30T05:28:16.206Z,58.87
2022-10-30T05:30:53.884Z,34.57
2022-10-30T05:33:46.946Z,60.53
2022-10-30T05:36:14.243Z,49.40
2022-10-30T05:38:42.153Z,49.03
2022-10-30T05:41:14.291Z,56.43
2022-10-30T05:43:42.251Z,60.20
2022-10-30T05:46:09.310Z,28.93
2022-10-30T05:48:36.418Z,34.33
2022-10-30T05:51:04.477Z,54.40
2022-10-30T05:53:31.531Z,54.63
2022-10-30T05:55:59.950Z,42.00
2022-10-30T05:58:31.633Z,21.63
2022-10-30T06:01:06.311Z,52.23
2022-10-30T06:03:46.005Z,27.00
2022-10-30T06:06:13.382Z,30.90
2022-10-30T06:08:40.474Z,43.20
2022-10-30T06:11:36.869Z,51.57
2022-10-30T06:14:04.195Z,36.30
2022-10-30T06:16:45.579Z,80.30
2022-10-30T06:19:31.196Z,28.07
2022-10-30T06:22:09.962Z,43.80
2022-10-30T06:24:49.656Z,35.70
2022-10-30T06:27:24.564Z,29.57
2022-10-30T06:29:54.915Z,53.57
2022-10-30T06:32:22.453Z,47.83
2022-10-30T06:34:50.106Z,48.47
2022-10-30T06:37:18.117Z,36.27
2022-10-30T06:39:45.456Z,51.80
2022-10-30T06:42:31.703Z,39.07
2022-10-30T06:45:08.238Z,40.30
2022-10-30T06:47:36.497Z,29.10
2022-10-30T06:50:05.166Z,31.67
2022-10-30T06:52:32.236Z,43.07
2022-10-30T06:55:00.365Z,41.70
2022-10-30T06:57:45.709Z,34.77
2022-10-30T07:00:31.376Z,45.70
2022-10-30T07:03:17.286Z,43.73
2022-10-30T07:05:44.465Z,39.43
2022-10-30T07:08:12.090Z,32.40
2022-10-30T07:10:39.600Z,37.87
2022-10-30T07:13:32.981Z,44.17
2022-10-30T07:16:08.772Z,48.40
2022-10-30T07:18:40.166Z,45.67
2022-10-30T07:21:07.777Z,60.63
2022-10-30T07:23:34.890Z,29.83
2022-10-30T07:26:22.139Z,38.20
2022-10-30T07:28:50.961Z,41.57
2022-10-30T07:31:42.139Z,81.60
2022-10-30T07:34:18.788Z,42.87
2022-10-30T07:36:58.087Z,57.40
2022-10-30T07:39:43.358Z,66.60
2022-10-30T07:42:26.168Z,40.33
2022-10-30T07:45:29.092Z,43.03
2022-10-30T07:48:14.647Z,47.40
2022-10-30T07:50:46.206Z,77.37
2022-10-30T07:53:13.244Z,48.57
2022-10-30T07:55:42.967Z,50.20
2022-10-30T07:58:30.197Z,51.77
2022-10-30T08:01:23.738Z,75.77
2022-10-30T08:03:51.046Z,49.67
2022-10-30T08:06:27.360Z,80.87
2022-10-30T08:08:54.898Z,54.90
2022-10-30T08:11:27.050Z,34.00
2022-10-30T08:13:54.906Z,41.93
2022-10-30T08:16:22.525Z,32.50
2022-10-30T08:18:50.452Z,35.57
2022-10-30T08:21:20.348Z,22.97
2022-10-30T08:23:57.187Z,50.17
2022-10-30T08:26:27.823Z,33.33
2022-10-30T08:28:55.008Z,29.60
2022-10-30T08:31:23.651Z,31.00
2022-10-30T08:34:13.453Z,35.87
2022-10-30T08:36:49.471Z,41.53
2022-10-30T08:39:17.810Z,45.83
2022-10-30T08:41:58.233Z,26.23
2022-10-30T08:44:26.873Z,22.27
2022-10-30T08:47:29.563Z,38.57
2022-10-30T08:49:56.774Z,82.17
2022-10-30T08:52:28.000Z,73.47
2022-10-30T08:54:56.774Z,66.43
2022-10-30T08:57:26.614Z,77.27
2022-10-30T08:59:55.726Z,51.87
2022-10-30T09:02:52.011Z,29.87
2022-10-30T09:05:37.984Z,23.83
2022-10-30T09:08:28.689Z,25.93
2022-10-30T09:11:11.445Z,32.13
2022-10-30T09:13:40.076Z,24.20
2022-10-30T09:16:07.719Z,21.27
2022-10-30T09:18:37.021Z,29.03
2022-10-30T09:21:05.484Z,21.00
2022-10-30T09:23:38.323Z,16.93
2022-10-30T09:26:29.278Z,20.80
2022-10-30T09:29:02.616Z,23.10
2022-10-30T09:31:52.899Z,18.47
2022-10-30T09:34:20.690Z,20.97
2022-10-30T09:36:55.398Z,13.87
2022-10-30T09:39:23.435Z,13.47
2022-10-30T09:42:38.298Z,23.27
2022-10-30T09:45:46.399Z,10.80
2022-10-30T09:48:57.262Z,10.63
2022-10-30T09:51:58.775Z,10.80
2022-10-30T09:55:02.793Z,20.17
2022-10-30T09:58:28.299Z,11.07
2022-10-30T10:01:25.941Z,10.97
2022-10-30T10:04:26.754Z,10.60
2022-10-30T10:07:32.843Z,9.20
2022-10-30T10:10:20.482Z,13.33
2022-10-30T10:13:00.250Z,9.80
2022-10-30T10:15:47.475Z,8.83
2022-10-30T10:18:22.280Z,10.73
2022-10-30T10:20:55.550Z,10.20
2022-10-30T10:23:33.995Z,9.53
2022-10-30T10:26:14.811Z,8.60
2022-10-30T10:29:25.079Z,8.40
2022-10-30T10:32:23.958Z,8.87
2022-10-30T10:35:21.071Z,6.17
2022-10-30T10:38:32.644Z,7.30
2022-10-30T10:41:24.872Z,6.73
2022-10-30T10:44:37.093Z,6.77
2022-10-30T10:47:33.022Z,7.00
2022-10-30T10:50:22.026Z,8.10
2022-10-30T10:53:07.361Z,7.73
2022-10-30T10:55:39.073Z,7.90
2022-10-30T10:58:39.241Z,7.13
2022-10-30T11:01:14.349Z,7.93
2022-10-30T11:04:24.083Z,8.07
2022-10-30T11:06:54.161Z,7.97
2022-10-30T11:09:23.098Z,7.43
2022-10-30T11:11:52.606Z,7.60
2022-10-30T11:14:22.094Z,8.00
2022-10-30T11:17:19.582Z,8.43
2022-10-30T11:19:51.826Z,7.50
2022-10-30T11:22:33.847Z,7.90
2022-10-30T11:25:28.593Z,8.47
2022-10-30T11:28:01.445Z,8.73
2022-10-30T11:30:29.102Z,8.23
2022-10-30T11:32:58.035Z,7.83
2022-10-30T11:35:26.374Z,8.57
2022-10-30T11:38:14.278Z,8.10
2022-10-30T11:40:48.589Z,8.10
2022-10-30T11:43:20.410Z,8.47
2022-10-30T11:45:48.265Z,7.63
2022-10-30T11:48:31.915Z,8.83
2022-10-30T11:51:01.347Z,8.50
2022-10-30T11:53:42.294Z,8.17
2022-10-30T11:56:19.421Z,7.63
2022-10-30T11:59:05.688Z,7.67
2022-10-30T12:01:36.347Z,8.23
2022-10-30T12:04:35.809Z,7.73
2022-10-30T12:07:18.837Z,7.57
2022-10-30T12:09:47.755Z,8.10
2022-10-30T12:12:29.080Z,9.60
2022-10-30T12:14:56.218Z,10.70
2022-10-30T12:17:23.590Z,9.50
2022-10-30T12:19:53.066Z,10.57
2022-10-30T12:22:30.923Z,11.17
2022-10-30T12:25:04.247Z,10.83
2022-10-30T12:27:36.061Z,9.47
2022-10-30T12:30:21.382Z,8.90
2022-10-30T12:33:12.599Z,9.97
2022-10-30T12:36:05.117Z,8.23
2022-10-30T12:39:12.473Z,7.43
2022-10-30T12:42:08.290Z,7.23
2022-10-30T12:44:45.875Z,7.17
2022-10-30T12:47:36.986Z,5.53
2022-10-30T12:50:19.196Z,5.43
2022-10-30T12:53:15.703Z,6.83
2022-10-30T12:55:54.701Z,7.63
2022-10-30T12:58:54.902Z,6.63
2022-10-30T13:01:49.707Z,7.10
2022-10-30T13:04:24.444Z,6.07
2022-10-30T13:07:26.544Z,5.23
2022-10-30T13:10:41.036Z,5.33
2022-10-30T13:13:28.069Z,5.30
2022-10-30T13:15:58.210Z,5.03
2022-10-30T13:18:27.131Z,4.87
2022-10-30T13:21:11.752Z,5.13
2022-10-30T13:24:20.961Z,5.70
2022-10-30T13:26:55.831Z,5.70
2022-10-30T13:29:45.732Z,5.30
2022-10-30T13:32:59.528Z,5.50
2022-10-30T13:35:49.664Z,4.77
2022-10-30T13:39:01.937Z,4.83
2022-10-30T13:42:10.919Z,5.47
2022-10-30T13:45:20.330Z,5.97
2022-10-30T13:48:22.719Z,5.07
2022-10-30T13:51:19.015Z,5.47
2022-10-30T13:53:49.690Z,4.50
2022-10-30T13:56:18.994Z,5.07
2022-10-30T13:59:12.042Z,5.50
2022-10-30T14:01:49.409Z,5.53
2022-10-30T14:04:26.664Z,5.10
2022-10-30T14:08:06.370Z,4.68
2022-10-30T14:10:54.627Z,4.63
2022-10-30T14:14:05.597Z,4.20
2022-10-30T14:17:10.230Z,4.47
2022-10-30T14:20:21.616Z,4.40
2022-10-30T14:23:08.961Z,4.97
2022-10-30T14:25:36.182Z,4.93
2022-10-30T14:28:03.415Z,5.50
2022-10-30T14:30:30.709Z,5.17
2022-10-30T14:32:58.052Z,4.53
2022-10-30T14:35:37.239Z,5.13
2022-10-30T14:38:34.665Z,5.23
2022-10-30T14:41:31.677Z,4.20
2022-10-30T14:44:27.622Z,5.05
2022-10-30T14:47:32.819Z,4.00
2022-10-30T14:50:18.644Z,4.72
2022-10-30T14:53:12.632Z,4.25
2022-10-30T14:56:20.130Z,4.40
2022-10-30T14:59:33.514Z,4.10
2022-10-30T15:02:30.016Z,5.13
2022-10-30T15:05:37.103Z,4.50
2022-10-30T15:08:41.760Z,4.93
2022-10-30T15:11:42.881Z,4.80
2022-10-30T15:14:54.963Z,5.10
2022-10-30T15:17:36.341Z,5.40
2022-10-30T15:20:07.602Z,5.80
2022-10-30T15:22:35.721Z,5.40
2022-10-30T15:25:04.265Z,6.17
2022-10-30T15:27:33.095Z,5.80
2022-10-30T15:30:02.316Z,6.70
2022-10-30T15:32:29.454Z,6.27
2022-10-30T15:35:05.292Z,6.37
2022-10-30T15:37:32.712Z,5.70
2022-10-30T15:40:19.826Z,5.77
2022-10-30T15:42:48.569Z,6.10
2022-10-30T15:45:32.722Z,5.90
2022-10-30T15:48:24.503Z,6.60
2022-10-30T15:51:06.851Z,5.90
2022-10-30T15:53:50.310Z,6.30
2022-10-30T15:57:17.939Z,6.00
2022-10-30T15:59:35.366Z,6.50
2022-10-30T16:02:02.581Z,6.47
2022-10-30T16:04:36.867Z,6.30
2022-10-30T16:07:22.011Z,6.20
2022-10-30T16:09:57.579Z,5.93
2022-10-30T16:12:26.964Z,5.87
2022-10-30T16:14:58.132Z,7.10
2022-10-30T16:17:26.426Z,6.13
2022-10-30T16:19:56.922Z,6.37
2022-10-30T16:22:44.337Z,6.70
2022-10-30T16:25:13.091Z,7.03
2022-10-30T16:27:44.970Z,6.47
2022-10-30T16:30:16.294Z,6.73
2022-10-30T16:32:52.536Z,7.60
2022-10-30T16:35:21.844Z,7.73
2022-10-30T16:37:50.725Z,8.07
2022-10-30T16:40:22.654Z,7.97
2022-10-30T16:43:01.940Z,7.30
2022-10-30T16:45:49.614Z,8.15
2022-10-30T16:48:27.679Z,10.03
2022-10-30T16:51:03.422Z,8.33
2022-10-30T16:53:31.328Z,9.40
2022-10-30T16:55:59.871Z,8.50
2022-10-30T16:58:31.910Z,9.43
2022-10-30T17:01:06.005Z,9.50
2022-10-30T17:03:39.753Z,9.93
2022-10-30T17:06:25.081Z,9.43
2022-10-30T17:08:53.738Z,8.70
2022-10-30T17:11:35.547Z,7.87
2022-10-30T17:14:07.209Z,8.50
2022-10-30T17:16:39.319Z,10.30
2022-10-30T17:19:38.948Z,11.30
2022-10-30T17:22:12.893Z,11.07
2022-10-30T17:24:40.125Z,12.53
2022-10-30T17:27:25.878Z,11.40
2022-10-30T17:29:53.849Z,9.60
2022-10-30T17:32:26.180Z,10.83
2022-10-30T17:35:03.025Z,10.60
2022-10-30T17:37:30.114Z,11.17
2022-10-30T17:39:57.216Z,10.23
2022-10-30T17:42:24.335Z,10.03
2022-10-30T17:44:51.484Z,10.77
2022-10-30T17:47:20.116Z,9.17
2022-10-30T17:49:49.457Z,10.73
2022-10-30T17:52:19.615Z,10.37
2022-10-30T17:54:46.955Z,11.27
2022-10-30T17:57:15.464Z,10.80
2022-10-30T17:59:43.428Z,11.37
2022-10-30T18:02:14.402Z,12.67
2022-10-30T18:04:44.938Z,13.43
2022-10-30T18:07:13.245Z,11.97
2022-10-30T18:09:40.817Z,12.33
2022-10-30T18:12:12.257Z,10.83
2022-10-30T18:14:39.352Z,11.93
2022-10-30T18:17:06.756Z,12.63
2022-10-30T18:19:33.937Z,11.60
2022-10-30T18:22:00.969Z,11.93
2022-10-30T18:24:27.989Z,13.23
2022-10-30T18:26:55.290Z,11.03
2022-10-30T18:29:22.375Z,12.07
2022-10-30T18:31:49.391Z,12.50
2022-10-30T18:34:21.130Z,12.07
2022-10-30T18:36:48.709Z,12.50
2022-10-30T18:39:15.795Z,12.17
2022-10-30T18:41:44.919Z,12.67
2022-10-30T18:44:16.571Z,13.73
2022-10-30T18:46:44.188Z,13.90
2022-10-30T18:49:11.442Z,11.87
2022-10-30T18:51:38.752Z,12.97
2022-10-30T18:54:14.098Z,12.13
2022-10-30T18:56:41.443Z,13.73
2022-10-30T18:59:08.472Z,12.10
2022-10-30T19:01:35.708Z,14.33
2022-10-30T19:04:04.554Z,14.33
2022-10-30T19:06:34.588Z,13.60
2022-10-30T19:09:02.246Z,14.80
2022-10-30T19:11:31.822Z,14.90
2022-10-30T19:13:59.867Z,12.47
2022-10-30T19:16:27.022Z,12.47
2022-10-30T19:18:54.229Z,12.70
2022-10-30T19:21:24.762Z,12.30
2022-10-30T19:23:51.893Z,10.60
2022-10-30T19:26:18.913Z,9.80
2022-10-30T19:28:46.016Z,9.50
2022-10-30T19:31:18.370Z,9.33
2022-10-30T19:33:46.209Z,10.83
2022-10-30T19:36:31.356Z,10.97
2022-10-30T19:38:58.628Z,13.43
2022-10-30T19:41:26.485Z,13.30
2022-10-30T19:43:54.116Z,13.97
2022-10-30T19:46:21.347Z,14.13
2022-10-30T19:48:57.400Z,16.40
2022-10-30T19:51:25.828Z,14.33
2022-10-30T19:53:53.988Z,13.70
2022-10-30T19:56:21.649Z,15.27
2022-10-30T19:58:49.298Z,14.97
2022-10-30T20:01:16.873Z,14.07
2022-10-30T20:03:44.093Z,16.53
2022-10-30T20:06:12.719Z,15.83
2022-10-30T20:08:40.043Z,13.83
2022-10-30T20:11:07.495Z,17.90
2022-10-30T20:13:34.581Z,18.90
2022-10-30T20:16:04.942Z,17.93
2022-10-30T20:18:34.383Z,16.10
2022-10-30T20:21:04.433Z,16.53
2022-10-30T20:23:31.469Z,14.07
2022-10-30T20:26:02.660Z,17.10
2022-10-30T20:28:40.044Z,16.57
2022-10-30T20:31:10.788Z,17.10
2022-10-30T20:33:38.151Z,17.63
2022-10-30T20:36:05.841Z,15.30
2022-10-30T20:38:34.398Z,17.30
2022-10-30T20:41:03.354Z,16.20
2022-10-30T20:43:38.871Z,16.47
2022-10-30T20:46:09.378Z,16.53
2022-10-30T20:48:37.974Z,16.60
2022-10-30T20:51:06.878Z,17.20
2022-10-30T20:53:34.055Z,15.70
2022-10-30T20:56:01.068Z,15.60
2022-10-30T20:58:28.282Z,17.50
2022-10-30T21:00:58.182Z,19.50
2022-10-30T21:03:26.966Z,18.13
2022-10-30T21:05:58.888Z,19.00
2022-10-30T21:08:31.473Z,16.87
2022-10-30T21:11:06.427Z,16.83
2022-10-30T21:13:34.728Z,14.70
2022-10-30T21:16:03.530Z,16.97
2022-10-30T21:18:30.865Z,15.70
2022-10-30T21:21:02.074Z,18.10
2022-10-30T21:23:29.223Z,16.80
2022-10-30T21:26:07.526Z,22.23
2022-10-30T21:28:34.634Z,25.47
2022-10-30T21:31:07.209Z,25.30
2022-10-30T21:33:35.678Z,23.27
2022-10-30T21:36:16.888Z,35.37
2022-10-30T21:38:47.290Z,40.70
2022-10-30T21:41:17.429Z,42.80
2022-10-30T21:43:48.747Z,53.53
2022-10-30T21:46:15.752Z,50.37
2022-10-30T21:48:42.901Z,42.63
2022-10-30T21:51:15.358Z,40.30
2022-10-30T21:53:43.125Z,33.33
2022-10-30T21:56:15.613Z,31.77
2022-10-30T21:58:42.954Z,29.73
2022-10-30T22:01:34.805Z,30.30
2022-10-30T22:04:03.945Z,30.30
2022-10-30T22:06:41.283Z,23.80
2022-10-30T22:09:15.963Z,31.13
2022-10-30T22:11:43.414Z,30.10
2022-10-30T22:14:10.921Z,26.03
2022-10-30T22:16:39.491Z,27.37
2022-10-30T22:19:08.100Z,23.83
2022-10-30T22:21:35.317Z,28.97
2022-10-30T22:24:03.485Z,31.00
2022-10-30T22:26:31.074Z,27.70
2022-10-30T22:28:59.964Z,25.27
2022-10-30T22:31:29.563Z,27.73
2022-10-30T22:33:58.538Z,32.57
2022-10-30T22:36:33.375Z,54.67
2022-10-30T22:39:02.292Z,75.60
2022-10-30T22:41:34.413Z,47.63
2022-10-30T22:44:08.361Z,34.57
2022-10-30T22:46:36.885Z,44.83
2022-10-30T22:49:04.279Z,54.90
2022-10-30T22:51:33.332Z,39.17
2022-10-30T22:54:02.234Z,54.50
2022-10-30T22:56:31.974Z,49.37
2022-10-30T22:59:02.581Z,47.33
2022-10-30T23:01:31.764Z,48.93
2022-10-30T23:04:00.869Z,63.00
2022-10-30T23:06:29.593Z,33.77
2022-10-30T23:08:59.283Z,80.33
2022-10-30T23:11:27.651Z,40.93
2022-10-30T23:13:55.593Z,33.80
2022-10-30T23:16:24.726Z,42.80
2022-10-30T23:18:54.010Z,46.20
2022-10-30T23:21:23.935Z,50.70
2022-10-30T23:23:51.320Z,51.03
2022-10-30T23:26:27.821Z,66.57
2022-10-30T23:28:56.266Z,54.73
2022-10-30T23:31:33.639Z,70.63
2022-10-30T23:34:03.225Z,52.07
2022-10-30T23:36:30.448Z,70.90
2022-10-30T23:39:00.433Z,42.63
2022-10-30T23:41:29.793Z,41.80
2022-10-30T23:43:58.641Z,59.40
2022-10-30T23:46:26.406Z,81.77
2022-10-30T23:48:53.753Z,50.97
2022-10-30T23:51:21.115Z,36.80
2022-10-30T23:53:48.808Z,55.53
2022-10-30T23:56:16.535Z,48.93
2022-10-30T23:58:49.242Z,60.50
